sensor_id;sensor_type;location;lat;lon;timestamp;temperature;humidity
34572;DHT22;20808;48.974;8.452;2022-12-18T00:02:07;-10.30;99.90
34572;DHT22;20808;48.974;8.452;2022-12-18T00:04:34;-10.40;99.90
34572;DHT22;20808;48.974;8.452;2022-12-18T00:07:00;-10.50;99.90
34572;DHT22;20808;48.974;8.452;2022-12-18T00:09:27;-10.70;95.60
34572;DHT22;20808;48.974;8.452;2022-12-18T00:11:54;-10.50;99.90
34572;DHT22;20808;48.974;8.452;2022-12-18T00:14:22;-10.50;99.90
34572;DHT22;20808;48.974;8.452;2022-12-18T00:16:49;-10.50;99.90
34572;DHT22;20808;48.974;8.452;2022-12-18T00:19:15;-10.60;98.80
34572;DHT22;20808;48.974;8.452;2022-12-18T00:21:43;-10.70;97.30
34572;DHT22;20808;48.974;8.452;2022-12-18T00:24:11;-10.90;80.60
34572;DHT22;20808;48.974;8.452;2022-12-18T00:26:38;-11.00;61.40
34572;DHT22;20808;48.974;8.452;2022-12-18T00:29:07;-11.10;55.50
34572;DHT22;20808;48.974;8.452;2022-12-18T00:31:38;-11.00;83.00
34572;DHT22;20808;48.974;8.452;2022-12-18T00:34:05;-10.80;99.90
34572;DHT22;20808;48.974;8.452;2022-12-18T00:36:34;-10.80;99.90
34572;DHT22;20808;48.974;8.452;2022-12-18T00:39:03;-10.90;99.90
34572;DHT22;20808;48.974;8.452;2022-12-18T00:41:30;-11.00;98.70
34572;DHT22;20808;48.974;8.452;2022-12-18T00:44:17;-11.10;92.00
34572;DHT22;20808;48.974;8.452;2022-12-18T00:46:46;-11.00;99.90
34572;DHT22;20808;48.974;8.452;2022-12-18T00:49:13;-10.70;99.90
34572;DHT22;20808;48.974;8.452;2022-12-18T00:51:40;-10.40;99.90
34572;DHT22;20808;48.974;8.452;2022-12-18T00:54:07;-10.20;99.90
34572;DHT22;20808;48.974;8.452;2022-12-18T00:56:35;-10.20;99.90
34572;DHT22;20808;48.974;8.452;2022-12-18T00:59:03;-10.40;99.90
34572;DHT22;20808;48.974;8.452;2022-12-18T01:01:29;-10.50;99.90
34572;DHT22;20808;48.974;8.452;2022-12-18T01:03:58;-10.40;99.90
34572;DHT22;20808;48.974;8.452;2022-12-18T01:06:25;-10.50;99.90
34572;DHT22;20808;48.974;8.452;2022-12-18T01:08:52;-10.50;99.90
34572;DHT22;20808;48.974;8.452;2022-12-18T01:11:20;-10.70;95.90
34572;DHT22;20808;48.974;8.452;2022-12-18T01:13:47;-10.80;71.70
34572;DHT22;20808;48.974;8.452;2022-12-18T01:16:15;-10.90;54.70
34572;DHT22;20808;48.974;8.452;2022-12-18T01:18:43;-10.90;66.30
34572;DHT22;20808;48.974;8.452;2022-12-18T01:21:13;-10.90;70.30
34572;DHT22;20808;48.974;8.452;2022-12-18T01:23:41;-10.80;87.40
34572;DHT22;20808;48.974;8.452;2022-12-18T01:26:15;-10.40;99.90
34572;DHT22;20808;48.974;8.452;2022-12-18T01:28:42;-10.30;99.90
34572;DHT22;20808;48.974;8.452;2022-12-18T01:31:17;-10.40;83.00
34572;DHT22;20808;48.974;8.452;2022-12-18T01:33:45;-10.60;50.30
34572;DHT22;20808;48.974;8.452;2022-12-18T01:36:18;-10.70;38.10
34572;DHT22;20808;48.974;8.452;2022-12-18T01:38:45;-10.80;23.70
34572;DHT22;20808;48.974;8.452;2022-12-18T01:41:13;-10.80;21.50
34572;DHT22;20808;48.974;8.452;2022-12-18T01:43:45;-10.80;24.30
34572;DHT22;20808;48.974;8.452;2022-12-18T01:46:12;-10.80;41.70
34572;DHT22;20808;48.974;8.452;2022-12-18T01:48:39;-10.60;83.10
34572;DHT22;20808;48.974;8.452;2022-12-18T01:51:08;-10.40;92.30
34572;DHT22;20808;48.974;8.452;2022-12-18T01:53:39;-10.30;99.30
34572;DHT22;20808;48.974;8.452;2022-12-18T01:56:07;-10.30;95.50
34572;DHT22;20808;48.974;8.452;2022-12-18T01:58:39;-10.10;99.90
34572;DHT22;20808;48.974;8.452;2022-12-18T02:01:08;-10.10;95.90
34572;DHT22;20808;48.974;8.452;2022-12-18T02:03:35;-10.20;63.60
34572;DHT22;20808;48.974;8.452;2022-12-18T02:06:07;-10.40;37.50
34572;DHT22;20808;48.974;8.452;2022-12-18T02:08:43;-10.60;17.70
34572;DHT22;20808;48.974;8.452;2022-12-18T02:11:18;-10.70;7.10
34572;DHT22;20808;48.974;8.452;2022-12-18T02:13:55;-10.70;7.90
34572;DHT22;20808;48.974;8.452;2022-12-18T02:16:30;-10.50;49.30
34572;DHT22;20808;48.974;8.452;2022-12-18T02:19:01;-10.30;99.30
34572;DHT22;20808;48.974;8.452;2022-12-18T02:21:40;-10.20;99.90
34572;DHT22;20808;48.974;8.452;2022-12-18T02:24:27;-10.20;99.90
34572;DHT22;20808;48.974;8.452;2022-12-18T02:26:59;-10.20;97.10
34572;DHT22;20808;48.974;8.452;2022-12-18T02:29:31;-10.00;99.90
34572;DHT22;20808;48.974;8.452;2022-12-18T02:32:00;-10.10;81.20
34572;DHT22;20808;48.974;8.452;2022-12-18T02:34:29;-10.40;41.80
34572;DHT22;20808;48.974;8.452;2022-12-18T02:36:59;-10.30;80.70
34572;DHT22;20808;48.974;8.452;2022-12-18T02:39:29;-10.50;51.70
34572;DHT22;20808;48.974;8.452;2022-12-18T02:41:58;-10.60;44.80
34572;DHT22;20808;48.974;8.452;2022-12-18T02:44:27;-10.60;43.30
34572;DHT22;20808;48.974;8.452;2022-12-18T02:46:54;-10.30;99.90
34572;DHT22;20808;48.974;8.452;2022-12-18T02:49:27;-10.10;99.90
34572;DHT22;20808;48.974;8.452;2022-12-18T02:52:03;-10.20;99.90
34572;DHT22;20808;48.974;8.452;2022-12-18T02:54:40;-10.30;96.10
34572;DHT22;20808;48.974;8.452;2022-12-18T02:57:19;-10.10;99.90
34572;DHT22;20808;48.974;8.452;2022-12-18T02:59:56;-10.10;99.90
34572;DHT22;20808;48.974;8.452;2022-12-18T03:02:28;-10.30;99.90
34572;DHT22;20808;48.974;8.452;2022-12-18T03:05:01;-10.40;99.90
34572;DHT22;20808;48.974;8.452;2022-12-18T03:07:36;-10.60;92.50
34572;DHT22;20808;48.974;8.452;2022-12-18T03:10:07;-10.60;99.90
34572;DHT22;20808;48.974;8.452;2022-12-18T03:12:39;-10.10;99.90
34572;DHT22;20808;48.974;8.452;2022-12-18T03:15:10;-9.80;99.90
34572;DHT22;20808;48.974;8.452;2022-12-18T03:17:41;-9.70;99.90
34572;DHT22;20808;48.974;8.452;2022-12-18T03:20:15;-9.60;99.90
34572;DHT22;20808;48.974;8.452;2022-12-18T03:22:46;-9.60;99.90
34572;DHT22;20808;48.974;8.452;2022-12-18T03:25:16;-9.70;99.90
34572;DHT22;20808;48.974;8.452;2022-12-18T03:27:49;-9.90;99.90
34572;DHT22;20808;48.974;8.452;2022-12-18T03:30:18;-10.00;99.90
34572;DHT22;20808;48.974;8.452;2022-12-18T03:32:48;-10.10;89.90
34572;DHT22;20808;48.974;8.452;2022-12-18T03:35:21;-10.00;99.90
34572;DHT22;20808;48.974;8.452;2022-12-18T03:37:49;-10.10;99.90
34572;DHT22;20808;48.974;8.452;2022-12-18T03:40:16;-10.30;94.40
34572;DHT22;20808;48.974;8.452;2022-12-18T03:42:48;-10.30;84.00
34572;DHT22;20808;48.974;8.452;2022-12-18T03:45:21;-10.30;94.90
34572;DHT22;20808;48.974;8.452;2022-12-18T03:47:57;-10.40;76.60
34572;DHT22;20808;48.974;8.452;2022-12-18T03:50:29;-10.40;99.90
34572;DHT22;20808;48.974;8.452;2022-12-18T03:53:00;-10.20;99.90
34572;DHT22;20808;48.974;8.452;2022-12-18T03:55:32;-9.90;99.90
34572;DHT22;20808;48.974;8.452;2022-12-18T03:58:03;-9.70;99.90
34572;DHT22;20808;48.974;8.452;2022-12-18T04:00:31;-9.70;99.90
34572;DHT22;20808;48.974;8.452;2022-12-18T04:03:01;-9.60;99.90
34572;DHT22;20808;48.974;8.452;2022-12-18T04:05:28;-9.60;99.90
34572;DHT22;20808;48.974;8.452;2022-12-18T04:07:56;-9.70;99.90
34572;DHT22;20808;48.974;8.452;2022-12-18T04:10:23;-9.60;99.90
34572;DHT22;20808;48.974;8.452;2022-12-18T04:12:50;-9.50;99.90
34572;DHT22;20808;48.974;8.452;2022-12-18T04:15:18;-9.40;99.90
34572;DHT22;20808;48.974;8.452;2022-12-18T04:17:48;-9.30;99.90
34572;DHT22;20808;48.974;8.452;2022-12-18T04:20:15;-9.20;99.90
34572;DHT22;20808;48.974;8.452;2022-12-18T04:22:42;-9.20;99.90
34572;DHT22;20808;48.974;8.452;2022-12-18T04:25:09;-9.10;99.90
34572;DHT22;20808;48.974;8.452;2022-12-18T04:27:38;-9.00;99.90
34572;DHT22;20808;48.974;8.452;2022-12-18T04:30:06;-8.90;99.90
34572;DHT22;20808;48.974;8.452;2022-12-18T04:32:35;-8.80;99.90
34572;DHT22;20808;48.974;8.452;2022-12-18T04:35:02;-8.80;99.90
34572;DHT22;20808;48.974;8.452;2022-12-18T04:37:29;-8.80;99.90
34572;DHT22;20808;48.974;8.452;2022-12-18T04:39:56;-8.70;99.90
34572;DHT22;20808;48.974;8.452;2022-12-18T04:42:23;-8.60;99.90
34572;DHT22;20808;48.974;8.452;2022-12-18T04:44:49;-8.50;99.90
34572;DHT22;20808;48.974;8.452;2022-12-18T04:47:16;-8.40;99.90
34572;DHT22;20808;48.974;8.452;2022-12-18T04:49:44;-8.40;99.90
34572;DHT22;20808;48.974;8.452;2022-12-18T04:52:11;-8.30;99.90
34572;DHT22;20808;48.974;8.452;2022-12-18T04:54:38;-8.20;99.90
34572;DHT22;20808;48.974;8.452;2022-12-18T04:57:05;-8.20;99.90
34572;DHT22;20808;48.974;8.452;2022-12-18T04:59:31;-8.20;99.90
34572;DHT22;20808;48.974;8.452;2022-12-18T05:01:58;-8.20;99.90
34572;DHT22;20808;48.974;8.452;2022-12-18T05:04:25;-8.10;99.90
34572;DHT22;20808;48.974;8.452;2022-12-18T05:06:53;-8.20;99.90
34572;DHT22;20808;48.974;8.452;2022-12-18T05:09:20;-8.20;99.90
34572;DHT22;20808;48.974;8.452;2022-12-18T05:11:47;-8.10;99.90
34572;DHT22;20808;48.974;8.452;2022-12-18T05:14:14;-8.10;99.90
34572;DHT22;20808;48.974;8.452;2022-12-18T05:16:41;-8.10;99.90
34572;DHT22;20808;48.974;8.452;2022-12-18T05:19:08;-8.00;99.90
34572;DHT22;20808;48.974;8.452;2022-12-18T05:21:35;-8.10;99.90
34572;DHT22;20808;48.974;8.452;2022-12-18T05:24:06;-8.00;99.90
34572;DHT22;20808;48.974;8.452;2022-12-18T05:26:33;-8.00;99.90
34572;DHT22;20808;48.974;8.452;2022-12-18T05:29:00;-7.90;99.90
34572;DHT22;20808;48.974;8.452;2022-12-18T05:31:26;-7.90;99.90
34572;DHT22;20808;48.974;8.452;2022-12-18T05:33:53;-7.90;99.90
34572;DHT22;20808;48.974;8.452;2022-12-18T05:36:20;-7.90;99.90
34572;DHT22;20808;48.974;8.452;2022-12-18T05:38:47;-7.90;99.90
34572;DHT22;20808;48.974;8.452;2022-12-18T05:41:15;-7.90;99.90
34572;DHT22;20808;48.974;8.452;2022-12-18T05:43:42;-7.90;99.90
34572;DHT22;20808;48.974;8.452;2022-12-18T05:46:12;-7.80;99.90
34572;DHT22;20808;48.974;8.452;2022-12-18T05:48:39;-7.80;99.90
34572;DHT22;20808;48.974;8.452;2022-12-18T05:51:08;-7.70;99.90
34572;DHT22;20808;48.974;8.452;2022-12-18T05:53:35;-7.70;99.90
34572;DHT22;20808;48.974;8.452;2022-12-18T05:56:06;-7.80;99.90
34572;DHT22;20808;48.974;8.452;2022-12-18T05:58:35;-7.70;99.90
34572;DHT22;20808;48.974;8.452;2022-12-18T06:01:07;-7.80;99.90
34572;DHT22;20808;48.974;8.452;2022-12-18T06:03:34;-7.80;99.90
34572;DHT22;20808;48.974;8.452;2022-12-18T06:06:01;-7.80;99.90
34572;DHT22;20808;48.974;8.452;2022-12-18T06:08:28;-7.90;99.90
34572;DHT22;20808;48.974;8.452;2022-12-18T06:10:55;-7.80;99.90
34572;DHT22;20808;48.974;8.452;2022-12-18T06:13:22;-7.90;99.90
34572;DHT22;20808;48.974;8.452;2022-12-18T06:15:50;-8.00;99.90
34572;DHT22;20808;48.974;8.452;2022-12-18T06:18:17;-8.20;99.90
34572;DHT22;20808;48.974;8.452;2022-12-18T06:20:44;-8.30;86.30
34572;DHT22;20808;48.974;8.452;2022-12-18T06:23:10;-8.40;54.10
34572;DHT22;20808;48.974;8.452;2022-12-18T06:25:38;-8.50;46.70
34572;DHT22;20808;48.974;8.452;2022-12-18T06:28:05;-8.50;47.40
34572;DHT22;20808;48.974;8.452;2022-12-18T06:30:32;-8.50;39.50
34572;DHT22;20808;48.974;8.452;2022-12-18T06:33:00;-8.40;58.60
34572;DHT22;20808;48.974;8.452;2022-12-18T06:35:27;-8.50;31.50
34572;DHT22;20808;48.974;8.452;2022-12-18T06:37:54;-8.60;25.40
34572;DHT22;20808;48.974;8.452;2022-12-18T06:40:21;-8.50;35.70
34572;DHT22;20808;48.974;8.452;2022-12-18T06:42:47;-8.50;44.90
34572;DHT22;20808;48.974;8.452;2022-12-18T06:45:14;-8.50;39.20
34572;DHT22;20808;48.974;8.452;2022-12-18T06:47:41;-8.50;43.90
34572;DHT22;20808;48.974;8.452;2022-12-18T06:50:28;-8.50;43.80
34572;DHT22;20808;48.974;8.452;2022-12-18T06:52:55;-8.40;49.70
34572;DHT22;20808;48.974;8.452;2022-12-18T06:55:22;-8.40;40.20
34572;DHT22;20808;48.974;8.452;2022-12-18T06:57:48;-8.40;42.30
34572;DHT22;20808;48.974;8.452;2022-12-18T07:00:15;-8.30;42.70
34572;DHT22;20808;48.974;8.452;2022-12-18T07:02:42;-8.20;43.20
34572;DHT22;20808;48.974;8.452;2022-12-18T07:05:09;-8.20;35.20
34572;DHT22;20808;48.974;8.452;2022-12-18T07:07:37;-8.20;28.10
34572;DHT22;20808;48.974;8.452;2022-12-18T07:10:05;-8.10;24.50
34572;DHT22;20808;48.974;8.452;2022-12-18T07:12:52;-8.10;19.80
34572;DHT22;20808;48.974;8.452;2022-12-18T07:15:18;-8.10;11.00
34572;DHT22;20808;48.974;8.452;2022-12-18T07:17:45;-8.10;16.30
34572;DHT22;20808;48.974;8.452;2022-12-18T07:20:12;-8.10;20.40
34572;DHT22;20808;48.974;8.452;2022-12-18T07:22:40;-8.00;1.00
34572;DHT22;20808;48.974;8.452;2022-12-18T07:25:07;-8.10;1.00
34572;DHT22;20808;48.974;8.452;2022-12-18T07:27:34;-8.10;1.00
34572;DHT22;20808;48.974;8.452;2022-12-18T07:30:01;-8.10;1.00
34572;DHT22;20808;48.974;8.452;2022-12-18T07:32:28;-8.00;1.00
34572;DHT22;20808;48.974;8.452;2022-12-18T07:34:56;-8.00;1.00
34572;DHT22;20808;48.974;8.452;2022-12-18T07:37:23;-8.00;1.00
34572;DHT22;20808;48.974;8.452;2022-12-18T07:39:51;-7.80;13.80
34572;DHT22;20808;48.974;8.452;2022-12-18T07:42:18;-7.80;3.80
34572;DHT22;20808;48.974;8.452;2022-12-18T07:45:01;-7.70;9.20
34572;DHT22;20808;48.974;8.452;2022-12-18T07:47:33;-7.70;16.10
34572;DHT22;20808;48.974;8.452;2022-12-18T07:50:00;-7.60;40.50
34572;DHT22;20808;48.974;8.452;2022-12-18T07:52:27;-7.60;53.50
34572;DHT22;20808;48.974;8.452;2022-12-18T07:54:55;-7.50;75.20
34572;DHT22;20808;48.974;8.452;2022-12-18T07:57:22;-7.40;95.90
34572;DHT22;20808;48.974;8.452;2022-12-18T07:59:48;-7.20;99.90
34572;DHT22;20808;48.974;8.452;2022-12-18T08:02:15;-7.20;99.90
34572;DHT22;20808;48.974;8.452;2022-12-18T08:04:42;-7.10;99.90
34572;DHT22;20808;48.974;8.452;2022-12-18T08:07:09;-7.00;99.90
34572;DHT22;20808;48.974;8.452;2022-12-18T08:09:35;-6.90;99.90
34572;DHT22;20808;48.974;8.452;2022-12-18T08:12:04;-6.90;99.90
34572;DHT22;20808;48.974;8.452;2022-12-18T08:14:31;-6.80;99.90
34572;DHT22;20808;48.974;8.452;2022-12-18T08:16:58;-6.70;99.90
34572;DHT22;20808;48.974;8.452;2022-12-18T08:19:25;-6.60;99.90
34572;DHT22;20808;48.974;8.452;2022-12-18T08:21:52;-6.60;99.90
34572;DHT22;20808;48.974;8.452;2022-12-18T08:24:18;-6.70;99.90
34572;DHT22;20808;48.974;8.452;2022-12-18T08:26:45;-6.60;99.90
34572;DHT22;20808;48.974;8.452;2022-12-18T08:29:13;-6.50;99.90
34572;DHT22;20808;48.974;8.452;2022-12-18T08:31:40;-6.40;99.90
34572;DHT22;20808;48.974;8.452;2022-12-18T08:34:07;-6.30;99.90
34572;DHT22;20808;48.974;8.452;2022-12-18T08:36:34;-6.30;99.90
34572;DHT22;20808;48.974;8.452;2022-12-18T08:39:01;-6.30;99.90
34572;DHT22;20808;48.974;8.452;2022-12-18T08:41:28;-6.10;99.90
34572;DHT22;20808;48.974;8.452;2022-12-18T08:43:55;-6.00;99.90
34572;DHT22;20808;48.974;8.452;2022-12-18T08:46:43;-6.10;99.90
34572;DHT22;20808;48.974;8.452;2022-12-18T08:49:11;-6.00;91.30
34572;DHT22;20808;48.974;8.452;2022-12-18T08:51:38;-6.00;60.10
34572;DHT22;20808;48.974;8.452;2022-12-18T08:54:06;-5.90;52.00
34572;DHT22;20808;48.974;8.452;2022-12-18T08:56:33;-5.60;96.80
34572;DHT22;20808;48.974;8.452;2022-12-18T08:59:00;-5.60;24.20
34572;DHT22;20808;48.974;8.452;2022-12-18T09:01:27;-5.60;5.00
34572;DHT22;20808;48.974;8.452;2022-12-18T09:03:55;-5.50;1.00
34572;DHT22;20808;48.974;8.452;2022-12-18T09:06:23;-5.40;1.00
34572;DHT22;20808;48.974;8.452;2022-12-18T09:08:49;-5.40;1.00
34572;DHT22;20808;48.974;8.452;2022-12-18T09:11:20;-5.20;1.00
34572;DHT22;20808;48.974;8.452;2022-12-18T09:13:48;-5.30;1.00
34572;DHT22;20808;48.974;8.452;2022-12-18T09:16:16;-5.30;1.00
34572;DHT22;20808;48.974;8.452;2022-12-18T09:18:43;-5.50;1.00
34572;DHT22;20808;48.974;8.452;2022-12-18T09:21:14;-5.70;1.00
34572;DHT22;20808;48.974;8.452;2022-12-18T09:23:42;-5.90;1.00
34572;DHT22;20808;48.974;8.452;2022-12-18T09:26:10;-5.80;1.00
34572;DHT22;20808;48.974;8.452;2022-12-18T09:28:37;-5.70;1.00
34572;DHT22;20808;48.974;8.452;2022-12-18T09:31:05;-5.60;1.00
34572;DHT22;20808;48.974;8.452;2022-12-18T09:33:33;-5.40;1.00
34572;DHT22;20808;48.974;8.452;2022-12-18T09:36:01;-4.90;1.00
34572;DHT22;20808;48.974;8.452;2022-12-18T09:38:30;-4.40;1.00
34572;DHT22;20808;48.974;8.452;2022-12-18T09:41:03;-3.90;1.00
34572;DHT22;20808;48.974;8.452;2022-12-18T09:43:37;-3.80;1.00
34572;DHT22;20808;48.974;8.452;2022-12-18T09:46:10;-3.70;1.00
34572;DHT22;20808;48.974;8.452;2022-12-18T09:48:40;-3.70;1.00
34572;DHT22;20808;48.974;8.452;2022-12-18T09:51:13;-3.70;1.00
34572;DHT22;20808;48.974;8.452;2022-12-18T09:53:46;-4.00;1.00
34572;DHT22;20808;48.974;8.452;2022-12-18T09:56:17;-4.30;1.00
34572;DHT22;20808;48.974;8.452;2022-12-18T09:58:47;-4.30;99.90
34572;DHT22;20808;48.974;8.452;2022-12-18T10:01:21;-4.10;99.90
34572;DHT22;20808;48.974;8.452;2022-12-18T10:03:48;-4.00;1.00
34572;DHT22;20808;48.974;8.452;2022-12-18T10:06:20;-3.80;1.00
34572;DHT22;20808;48.974;8.452;2022-12-18T10:08:56;-4.00;1.00
34572;DHT22;20808;48.974;8.452;2022-12-18T10:11:34;-4.20;1.00
34572;DHT22;20808;48.974;8.452;2022-12-18T10:14:06;-4.20;1.00
34572;DHT22;20808;48.974;8.452;2022-12-18T10:16:43;-4.20;1.00
34572;DHT22;20808;48.974;8.452;2022-12-18T10:19:21;-4.10;1.00
34572;DHT22;20808;48.974;8.452;2022-12-18T10:21:53;-4.10;1.00
34572;DHT22;20808;48.974;8.452;2022-12-18T10:24:28;-4.20;1.00
34572;DHT22;20808;48.974;8.452;2022-12-18T10:27:04;-4.20;1.00
34572;DHT22;20808;48.974;8.452;2022-12-18T10:29:36;-4.50;1.00
34572;DHT22;20808;48.974;8.452;2022-12-18T10:32:03;-4.40;1.00
34572;DHT22;20808;48.974;8.452;2022-12-18T10:34:30;-4.40;1.00
34572;DHT22;20808;48.974;8.452;2022-12-18T10:36:57;-4.40;85.70
34572;DHT22;20808;48.974;8.452;2022-12-18T10:39:28;-4.40;99.90
34572;DHT22;20808;48.974;8.452;2022-12-18T10:42:10;-4.10;1.00
34572;DHT22;20808;48.974;8.452;2022-12-18T10:44:38;-3.80;99.90
34572;DHT22;20808;48.974;8.452;2022-12-18T10:47:11;-3.80;99.90
34572;DHT22;20808;48.974;8.452;2022-12-18T10:49:42;-3.70;99.90
34572;DHT22;20808;48.974;8.452;2022-12-18T10:52:15;-3.50;1.00
34572;DHT22;20808;48.974;8.452;2022-12-18T10:54:49;-3.50;1.00
34572;DHT22;20808;48.974;8.452;2022-12-18T10:57:29;-3.60;1.00
34572;DHT22;20808;48.974;8.452;2022-12-18T10:59:58;-3.60;99.90
34572;DHT22;20808;48.974;8.452;2022-12-18T11:02:28;-3.50;1.00
34572;DHT22;20808;48.974;8.452;2022-12-18T11:04:59;-3.60;99.90
34572;DHT22;20808;48.974;8.452;2022-12-18T11:07:48;-3.30;1.00
34572;DHT22;20808;48.974;8.452;2022-12-18T11:10:30;-3.10;1.00
34572;DHT22;20808;48.974;8.452;2022-12-18T11:13:11;-3.20;1.00
34572;DHT22;20808;48.974;8.452;2022-12-18T11:15:40;-3.00;99.90
34572;DHT22;20808;48.974;8.452;2022-12-18T11:18:16;-2.60;1.00
34572;DHT22;20808;48.974;8.452;2022-12-18T11:20:50;-2.60;89.20
34572;DHT22;20808;48.974;8.452;2022-12-18T11:23:19;-2.50;99.90
34572;DHT22;20808;48.974;8.452;2022-12-18T11:25:53;-2.60;1.00
34572;DHT22;20808;48.974;8.452;2022-12-18T11:28:43;-2.80;99.90
34572;DHT22;20808;48.974;8.452;2022-12-18T11:31:24;-2.80;99.90
34572;DHT22;20808;48.974;8.452;2022-12-18T11:34:04;-3.00;1.00
34572;DHT22;20808;48.974;8.452;2022-12-18T11:36:37;-3.30;1.00
34572;DHT22;20808;48.974;8.452;2022-12-18T11:39:12;-3.30;1.00
34572;DHT22;20808;48.974;8.452;2022-12-18T11:41:48;-3.40;1.00
34572;DHT22;20808;48.974;8.452;2022-12-18T11:44:41;-3.60;1.00
34572;DHT22;20808;48.974;8.452;2022-12-18T11:47:16;-3.60;1.00
34572;DHT22;20808;48.974;8.452;2022-12-18T11:49:49;-3.40;1.00
34572;DHT22;20808;48.974;8.452;2022-12-18T11:52:19;-3.10;1.00
34572;DHT22;20808;48.974;8.452;2022-12-18T11:54:51;-2.80;99.90
34572;DHT22;20808;48.974;8.452;2022-12-18T11:57:27;-2.50;21.70
34572;DHT22;20808;48.974;8.452;2022-12-18T12:00:02;-2.30;1.00
34572;DHT22;20808;48.974;8.452;2022-12-18T12:02:41;-2.10;99.90
34572;DHT22;20808;48.974;8.452;2022-12-18T12:05:20;-1.90;39.70
34572;DHT22;20808;48.974;8.452;2022-12-18T12:07:57;-1.70;52.40
34572;DHT22;20808;48.974;8.452;2022-12-18T12:10:34;-1.40;77.60
34572;DHT22;20808;48.974;8.452;2022-12-18T12:13:19;-1.20;1.00
34572;DHT22;20808;48.974;8.452;2022-12-18T12:15:59;-1.30;1.00
34572;DHT22;20808;48.974;8.452;2022-12-18T12:18:38;-1.20;1.00
34572;DHT22;20808;48.974;8.452;2022-12-18T12:21:15;-1.10;1.00
34572;DHT22;20808;48.974;8.452;2022-12-18T12:23:52;-1.00;1.00
34572;DHT22;20808;48.974;8.452;2022-12-18T12:26:27;-1.20;1.00
34572;DHT22;20808;48.974;8.452;2022-12-18T12:29:10;-1.10;1.00
34572;DHT22;20808;48.974;8.452;2022-12-18T12:31:52;-1.00;99.90
34572;DHT22;20808;48.974;8.452;2022-12-18T12:34:24;-1.10;1.00
34572;DHT22;20808;48.974;8.452;2022-12-18T12:37:13;-1.00;1.00
34572;DHT22;20808;48.974;8.452;2022-12-18T12:39:43;-1.00;1.00
34572;DHT22;20808;48.974;8.452;2022-12-18T12:42:18;-0.60;1.00
34572;DHT22;20808;48.974;8.452;2022-12-18T12:45:06;-0.50;99.90
34572;DHT22;20808;48.974;8.452;2022-12-18T12:47:36;-0.40;99.90
34572;DHT22;20808;48.974;8.452;2022-12-18T12:50:13;-0.60;99.90
34572;DHT22;20808;48.974;8.452;2022-12-18T12:52:43;-0.70;99.90
34572;DHT22;20808;48.974;8.452;2022-12-18T12:55:16;-0.50;99.90
34572;DHT22;20808;48.974;8.452;2022-12-18T12:57:47;0.00;99.90
34572;DHT22;20808;48.974;8.452;2022-12-18T13:00:19;0.00;99.90
34572;DHT22;20808;48.974;8.452;2022-12-18T13:02:50;-0.10;99.90
34572;DHT22;20808;48.974;8.452;2022-12-18T13:05:22;-0.20;99.90
34572;DHT22;20808;48.974;8.452;2022-12-18T13:07:52;-0.30;99.90
34572;DHT22;20808;48.974;8.452;2022-12-18T13:10:31;-0.30;99.90
34572;DHT22;20808;48.974;8.452;2022-12-18T13:13:17;-0.20;99.90
34572;DHT22;20808;48.974;8.452;2022-12-18T13:16:06;-0.40;99.90
34572;DHT22;20808;48.974;8.452;2022-12-18T13:18:53;-0.50;1.00
34572;DHT22;20808;48.974;8.452;2022-12-18T13:21:40;-0.60;1.00
34572;DHT22;20808;48.974;8.452;2022-12-18T13:24:27;-0.70;99.90
34572;DHT22;20808;48.974;8.452;2022-12-18T13:27:46;-0.80;1.00
34572;DHT22;20808;48.974;8.452;2022-12-18T13:30:43;-0.90;1.00
34572;DHT22;20808;48.974;8.452;2022-12-18T13:33:40;-0.70;1.00
34572;DHT22;20808;48.974;8.452;2022-12-18T13:36:32;-0.70;1.00
34572;DHT22;20808;48.974;8.452;2022-12-18T13:39:24;-0.80;1.00
34572;DHT22;20808;48.974;8.452;2022-12-18T13:42:36;-1.00;1.00
34572;DHT22;20808;48.974;8.452;2022-12-18T13:45:43;-1.20;1.00
34572;DHT22;20808;48.974;8.452;2022-12-18T13:48:32;-1.20;1.00
34572;DHT22;20808;48.974;8.452;2022-12-18T13:51:20;-1.20;1.00
34572;DHT22;20808;48.974;8.452;2022-12-18T13:54:14;-1.20;1.00
34572;DHT22;20808;48.974;8.452;2022-12-18T13:57:02;-1.30;1.00
34572;DHT22;20808;48.974;8.452;2022-12-18T13:59:49;-1.60;1.00
34572;DHT22;20808;48.974;8.452;2022-12-18T14:02:34;-1.70;1.00
34572;DHT22;20808;48.974;8.452;2022-12-18T14:05:22;-1.70;99.90
34572;DHT22;20808;48.974;8.452;2022-12-18T14:08:11;-1.70;1.00
34572;DHT22;20808;48.974;8.452;2022-12-18T14:10:58;-1.70;1.00
34572;DHT22;20808;48.974;8.452;2022-12-18T14:13:43;-1.70;1.00
34572;DHT22;20808;48.974;8.452;2022-12-18T14:16:30;-1.70;1.00
34572;DHT22;20808;48.974;8.452;2022-12-18T14:19:17;-1.80;1.00
34572;DHT22;20808;48.974;8.452;2022-12-18T14:22:03;-1.90;1.00
34572;DHT22;20808;48.974;8.452;2022-12-18T14:25:12;-1.80;1.00
34572;DHT22;20808;48.974;8.452;2022-12-18T14:28:14;-2.00;1.00
34572;DHT22;20808;48.974;8.452;2022-12-18T14:31:00;-2.10;95.80
34572;DHT22;20808;48.974;8.452;2022-12-18T14:33:46;-2.10;99.90
34572;DHT22;20808;48.974;8.452;2022-12-18T14:36:31;-2.20;99.90
34572;DHT22;20808;48.974;8.452;2022-12-18T14:39:17;-2.40;1.00
34572;DHT22;20808;48.974;8.452;2022-12-18T14:42:05;-2.50;87.80
34572;DHT22;20808;48.974;8.452;2022-12-18T14:44:50;-2.60;1.00
34572;DHT22;20808;48.974;8.452;2022-12-18T14:47:36;-2.70;1.00
34572;DHT22;20808;48.974;8.452;2022-12-18T14:50:21;-2.80;99.90
34572;DHT22;20808;48.974;8.452;2022-12-18T14:53:18;-2.80;1.00
34572;DHT22;20808;48.974;8.452;2022-12-18T14:56:14;-2.90;1.00
34572;DHT22;20808;48.974;8.452;2022-12-18T14:59:04;-3.00;99.90
34572;DHT22;20808;48.974;8.452;2022-12-18T15:01:57;-3.10;1.00
34572;DHT22;20808;48.974;8.452;2022-12-18T15:04:44;-3.30;1.00
34572;DHT22;20808;48.974;8.452;2022-12-18T15:07:40;-3.40;99.90
34572;DHT22;20808;48.974;8.452;2022-12-18T15:10:27;-3.60;1.00
34572;DHT22;20808;48.974;8.452;2022-12-18T15:13:21;-3.70;99.90
34572;DHT22;20808;48.974;8.452;2022-12-18T15:16:12;-3.90;99.90
34572;DHT22;20808;48.974;8.452;2022-12-18T15:18:57;-4.00;1.00
34572;DHT22;20808;48.974;8.452;2022-12-18T15:21:43;-4.20;1.00
34572;DHT22;20808;48.974;8.452;2022-12-18T15:24:31;-4.30;1.00
34572;DHT22;20808;48.974;8.452;2022-12-18T15:27:31;-4.40;1.00
34572;DHT22;20808;48.974;8.452;2022-12-18T15:30:20;-4.60;1.00
34572;DHT22;20808;48.974;8.452;2022-12-18T15:33:24;-4.70;1.00
34572;DHT22;20808;48.974;8.452;2022-12-18T15:36:12;-4.90;1.00
34572;DHT22;20808;48.974;8.452;2022-12-18T15:38:58;-5.00;1.00
34572;DHT22;20808;48.974;8.452;2022-12-18T15:41:43;-5.10;1.00
34572;DHT22;20808;48.974;8.452;2022-12-18T15:44:49;-5.10;1.00
34572;DHT22;20808;48.974;8.452;2022-12-18T15:47:34;-5.20;1.00
34572;DHT22;20808;48.974;8.452;2022-12-18T15:50:20;-5.20;1.00
34572;DHT22;20808;48.974;8.452;2022-12-18T15:53:08;-5.10;6.30
34572;DHT22;20808;48.974;8.452;2022-12-18T15:55:53;-5.10;5.70
34572;DHT22;20808;48.974;8.452;2022-12-18T15:58:56;-5.20;13.80
34572;DHT22;20808;48.974;8.452;2022-12-18T16:01:44;-5.20;49.40
34572;DHT22;20808;48.974;8.452;2022-12-18T16:04:30;-5.10;77.30
34572;DHT22;20808;48.974;8.452;2022-12-18T16:07:16;-5.00;99.90
34572;DHT22;20808;48.974;8.452;2022-12-18T16:10:02;-4.90;99.90
34572;DHT22;20808;48.974;8.452;2022-12-18T16:12:48;-4.80;99.90
34572;DHT22;20808;48.974;8.452;2022-12-18T16:15:33;-4.60;99.90